createdAt,value
2023-01-25T00:00:56.340Z,103.97
2023-01-25T00:03:24.858Z,106.03
2023-01-25T00:06:01.041Z,103.67
2023-01-25T00:08:29.423Z,107.53
2023-01-25T00:10:58.687Z,106.93
2023-01-25T00:13:27.603Z,103.13
2023-01-25T00:16:03.112Z,102.33
2023-01-25T00:18:31.758Z,102.43
2023-01-25T00:21:00.361Z,103.40
2023-01-25T00:23:28.657Z,106.37
2023-01-25T00:25:59.190Z,99.23
2023-01-25T00:28:28.092Z,106.33
2023-01-25T00:31:00.409Z,106.00
2023-01-25T00:33:41.408Z,113.27
2023-01-25T00:36:28.695Z,106.63
2023-01-25T00:38:59.153Z,113.50
2023-01-25T00:41:27.945Z,111.43
2023-01-25T00:43:56.469Z,112.80
2023-01-25T00:46:26.335Z,107.60
2023-01-25T00:48:55.645Z,115.50
2023-01-25T00:51:24.392Z,116.33
2023-01-25T00:53:53.135Z,108.17
2023-01-25T00:56:21.510Z,117.77
2023-01-25T00:58:49.980Z,107.63
2023-01-25T01:01:18.302Z,111.83
2023-01-25T01:03:47.959Z,107.47
2023-01-25T01:06:16.160Z,114.63
2023-01-25T01:08:44.584Z,106.13
2023-01-25T01:11:13.980Z,104.43
2023-01-25T01:13:42.841Z,105.97
2023-01-25T01:16:14.130Z,109.53
2023-01-25T01:18:44.241Z,115.83
2023-01-25T01:21:14.808Z,104.67
2023-01-25T01:23:43.065Z,110.17
2023-01-25T01:26:13.510Z,109.33
2023-01-25T01:28:42.583Z,113.60
2023-01-25T01:31:14.305Z,112.47
2023-01-25T01:33:42.873Z,113.80
2023-01-25T01:36:14.781Z,106.80
2023-01-25T01:38:43.654Z,110.40
2023-01-25T01:41:12.496Z,111.23
2023-01-25T01:43:40.848Z,106.13
2023-01-25T01:46:14.764Z,109.07
2023-01-25T01:48:46.366Z,107.90
2023-01-25T01:51:22.236Z,103.53
2023-01-25T01:53:54.563Z,106.90
2023-01-25T01:56:29.400Z,109.17
2023-01-25T01:58:59.593Z,109.10
2023-01-25T02:01:28.141Z,108.13
2023-01-25T02:03:56.903Z,110.37
2023-01-25T02:06:37.727Z,114.83
2023-01-25T02:09:06.166Z,111.87
2023-01-25T02:11:35.116Z,111.70
2023-01-25T02:14:05.029Z,112.23
2023-01-25T02:16:33.519Z,113.30
2023-01-25T02:19:03.714Z,111.93
2023-01-25T02:21:40.224Z,118.40
2023-01-25T02:24:15.159Z,110.63
2023-01-25T02:26:45.875Z,113.57
2023-01-25T02:29:14.879Z,116.50
2023-01-25T02:31:46.072Z,114.63
2023-01-25T02:34:14.718Z,120.77
2023-01-25T02:36:43.542Z,116.87
2023-01-25T02:39:17.308Z,118.00
2023-01-25T02:41:49.043Z,117.67
2023-01-25T02:44:21.239Z,116.10
2023-01-25T02:46:49.970Z,112.93
2023-01-25T02:49:19.452Z,120.87
2023-01-25T02:51:50.048Z,118.27
2023-01-25T02:54:20.107Z,121.27
2023-01-25T02:56:49.861Z,118.10
2023-01-25T02:59:19.041Z,121.07
2023-01-25T03:01:47.891Z,120.97
2023-01-25T03:04:16.312Z,121.93
2023-01-25T03:06:44.654Z,120.10
2023-01-25T03:09:13.226Z,119.53
2023-01-25T03:11:42.064Z,121.77
2023-01-25T03:14:11.823Z,127.07
2023-01-25T03:16:40.216Z,122.60
2023-01-25T03:19:08.597Z,125.87
2023-01-25T03:21:37.066Z,131.80
2023-01-25T03:24:05.540Z,134.83
2023-01-25T03:26:54.355Z,127.27
2023-01-25T03:29:24.004Z,119.43
2023-01-25T03:31:52.459Z,120.97
2023-01-25T03:34:21.237Z,127.20
2023-01-25T03:36:49.631Z,130.43
2023-01-25T03:39:18.085Z,125.33
2023-01-25T03:41:46.502Z,128.77
2023-01-25T03:44:14.893Z,125.00
2023-01-25T03:46:44.596Z,127.37
2023-01-25T03:49:12.985Z,120.97
2023-01-25T03:51:41.363Z,124.63
2023-01-25T03:54:10.230Z,124.90
2023-01-25T03:56:38.939Z,126.00
2023-01-25T03:59:07.310Z,122.33
2023-01-25T04:01:36.164Z,126.93
2023-01-25T04:04:05.803Z,127.23
2023-01-25T04:06:34.022Z,124.87
2023-01-25T04:09:02.469Z,125.00
2023-01-25T04:11:30.818Z,132.57
2023-01-25T04:13:59.492Z,128.63
2023-01-25T04:16:30.548Z,127.67
2023-01-25T04:18:59.006Z,124.50
2023-01-25T04:21:28.671Z,127.30
2023-01-25T04:23:57.079Z,135.73
2023-01-25T04:26:25.488Z,135.27
2023-01-25T04:28:53.766Z,130.03
2023-01-25T04:31:22.276Z,129.97
2023-01-25T04:33:51.403Z,127.00
2023-01-25T04:36:19.798Z,132.57
2023-01-25T04:38:49.396Z,129.07
2023-01-25T04:41:17.635Z,131.13
2023-01-25T04:43:46.047Z,124.80
2023-01-25T04:46:14.543Z,133.90
2023-01-25T04:48:43.042Z,131.97
2023-01-25T04:51:11.275Z,131.13
2023-01-25T04:53:40.101Z,128.83
2023-01-25T04:56:09.881Z,130.90
2023-01-25T04:58:38.295Z,131.50
2023-01-25T05:01:07.427Z,137.30
2023-01-25T05:03:35.941Z,144.93
2023-01-25T05:06:04.274Z,134.97
2023-01-25T05:08:32.605Z,142.53
2023-01-25T05:11:01.064Z,142.87
2023-01-25T05:13:30.564Z,136.07
2023-01-25T05:15:58.985Z,138.63
2023-01-25T05:18:33.133Z,141.13
2023-01-25T05:21:28.074Z,134.17
2023-01-25T05:23:56.477Z,126.23
2023-01-25T05:26:42.734Z,130.97
2023-01-25T05:29:12.430Z,129.40
2023-01-25T05:31:40.832Z,136.47
2023-01-25T05:34:10.562Z,131.93
2023-01-25T05:36:39.028Z,128.93
2023-01-25T05:39:08.671Z,130.73
2023-01-25T05:41:37.100Z,134.87
2023-01-25T05:44:05.762Z,143.80
2023-01-25T05:46:35.308Z,140.70
2023-01-25T05:49:03.899Z,142.23
2023-01-25T05:51:32.535Z,143.20
2023-01-25T05:54:00.804Z,143.13
2023-01-25T05:56:29.465Z,148.87
2023-01-25T05:58:59.835Z,140.50
2023-01-25T06:01:28.900Z,147.93
2023-01-25T06:03:58.945Z,147.47
2023-01-25T06:06:27.351Z,139.10
2023-01-25T06:08:55.791Z,150.00
2023-01-25T06:11:25.387Z,144.43
2023-01-25T06:13:53.884Z,136.97
2023-01-25T06:16:22.452Z,138.87
2023-01-25T06:18:50.753Z,141.27
2023-01-25T06:21:20.848Z,140.10
2023-01-25T06:23:49.350Z,137.93
2023-01-25T06:26:17.973Z,138.83
2023-01-25T06:28:46.379Z,145.07
2023-01-25T06:31:15.893Z,147.20
2023-01-25T06:33:44.834Z,145.40
2023-01-25T06:36:14.945Z,153.63
2023-01-25T06:38:44.681Z,152.40
2023-01-25T06:41:13.511Z,148.97
2023-01-25T06:43:41.877Z,146.40
2023-01-25T06:46:12.043Z,151.90
2023-01-25T06:48:41.805Z,155.40
2023-01-25T06:51:11.696Z,153.63
2023-01-25T06:53:41.671Z,149.20
2023-01-25T06:56:13.019Z,148.83
2023-01-25T06:58:41.731Z,150.47
2023-01-25T07:01:14.535Z,149.10
2023-01-25T07:03:42.840Z,153.10
2023-01-25T07:06:12.282Z,148.10
2023-01-25T07:08:40.973Z,147.40
2023-01-25T07:11:13.890Z,150.77
2023-01-25T07:13:43.535Z,152.83
2023-01-25T07:16:14.135Z,155.13
2023-01-25T07:18:42.979Z,162.17
2023-01-25T07:21:13.862Z,155.63
2023-01-25T07:23:42.145Z,151.60
2023-01-25T07:26:18.468Z,150.53
2023-01-25T07:28:47.426Z,154.77
2023-01-25T07:31:16.898Z,149.07
2023-01-25T07:33:48.824Z,164.53
2023-01-25T07:36:17.291Z,148.77
2023-01-25T07:38:45.757Z,143.67
2023-01-25T07:41:16.508Z,144.70
2023-01-25T07:43:44.863Z,143.40
2023-01-25T07:46:15.597Z,141.67
2023-01-25T07:48:48.375Z,143.63
2023-01-25T07:51:23.696Z,142.90
2023-01-25T07:53:54.154Z,148.27
2023-01-25T07:56:25.539Z,151.07
2023-01-25T07:58:54.695Z,148.98
2023-01-25T08:01:24.399Z,142.30
2023-01-25T08:03:53.716Z,142.83
2023-01-25T08:06:27.500Z,142.33
2023-01-25T08:08:56.426Z,136.40
2023-01-25T08:11:28.031Z,139.40
2023-01-25T08:13:57.011Z,150.07
2023-01-25T08:16:27.833Z,152.67
2023-01-25T08:18:57.390Z,155.17
2023-01-25T08:21:29.939Z,151.33
2023-01-25T08:23:59.760Z,150.27
2023-01-25T08:26:30.121Z,160.27
2023-01-25T08:28:58.866Z,152.87
2023-01-25T08:31:28.917Z,158.37
2023-01-25T08:33:58.010Z,157.57
2023-01-25T08:36:28.028Z,158.13
2023-01-25T08:38:57.575Z,153.53
2023-01-25T08:41:27.164Z,157.03
2023-01-25T08:43:57.414Z,152.23
2023-01-25T08:46:30.226Z,149.07
2023-01-25T08:49:00.751Z,155.03
2023-01-25T08:51:31.707Z,157.47
2023-01-25T08:54:04.284Z,154.80
2023-01-25T08:56:32.697Z,152.07
2023-01-25T08:59:02.284Z,145.27
2023-01-25T09:01:30.748Z,146.53
2023-01-25T09:03:59.396Z,148.37
2023-01-25T09:06:28.003Z,143.60
2023-01-25T09:08:56.431Z,153.57
2023-01-25T09:11:24.684Z,151.70
2023-01-25T09:13:53.101Z,155.40
2023-01-25T09:16:29.543Z,149.13
2023-01-25T09:18:59.411Z,154.90
2023-01-25T09:21:28.047Z,144.13
2023-01-25T09:24:05.915Z,155.77
2023-01-25T09:26:35.527Z,149.97
2023-01-25T09:29:04.241Z,150.87
2023-01-25T09:31:34.504Z,146.80
2023-01-25T09:34:03.634Z,160.30
2023-01-25T09:36:32.110Z,153.53
2023-01-25T09:39:00.330Z,146.40
2023-01-25T09:41:43.362Z,152.70
2023-01-25T09:44:25.287Z,154.93
2023-01-25T09:46:57.881Z,161.77
2023-01-25T09:49:47.100Z,159.57
2023-01-25T09:52:30.214Z,154.87
2023-01-25T09:54:59.726Z,148.70
2023-01-25T09:57:32.098Z,159.60
2023-01-25T10:00:05.547Z,154.90
2023-01-25T10:02:41.827Z,154.63
2023-01-25T10:05:14.895Z,151.30
2023-01-25T10:07:54.653Z,148.33
2023-01-25T10:10:27.863Z,147.93
2023-01-25T10:12:56.325Z,155.27
2023-01-25T10:15:31.755Z,147.67
2023-01-25T10:18:06.612Z,150.43
2023-01-25T10:20:41.540Z,153.30
2023-01-25T10:23:28.267Z,153.43
2023-01-25T10:25:59.762Z,149.57
2023-01-25T10:28:41.993Z,148.37
2023-01-25T10:31:19.160Z,147.63
2023-01-25T10:33:50.447Z,147.53
2023-01-25T10:36:22.846Z,146.03
2023-01-25T10:38:57.385Z,148.30
2023-01-25T10:41:32.662Z,142.10
2023-01-25T10:44:18.404Z,142.57
2023-01-25T10:46:51.263Z,145.90
2023-01-25T10:49:25.880Z,141.50
2023-01-25T10:51:54.489Z,145.17
2023-01-25T10:54:24.496Z,149.17
2023-01-25T10:56:53.545Z,152.20
2023-01-25T10:59:25.433Z,152.47
2023-01-25T11:01:54.398Z,146.90
2023-01-25T11:04:33.620Z,152.87
2023-01-25T11:07:03.587Z,147.40
2023-01-25T11:09:38.061Z,147.23
2023-01-25T11:12:17.805Z,149.30
2023-01-25T11:14:49.705Z,146.33
2023-01-25T11:17:27.198Z,143.73
2023-01-25T11:20:17.648Z,148.35
2023-01-25T11:22:54.354Z,142.33
2023-01-25T11:25:30.677Z,147.57
2023-01-25T11:28:19.706Z,142.57
2023-01-25T11:30:48.972Z,144.77
2023-01-25T11:33:19.217Z,141.87
2023-01-25T11:36:23.059Z,137.90
2023-01-25T11:39:07.029Z,137.53
2023-01-25T11:41:48.010Z,136.03
2023-01-25T11:44:51.899Z,138.80
2023-01-25T11:47:33.986Z,129.57
2023-01-25T11:50:12.601Z,134.57
2023-01-25T11:52:59.939Z,140.00
2023-01-25T11:55:30.349Z,136.77
2023-01-25T11:58:12.987Z,127.00
2023-01-25T12:00:55.325Z,130.63
2023-01-25T12:03:53.219Z,131.80
2023-01-25T12:06:26.876Z,132.53
2023-01-25T12:09:12.938Z,132.77
2023-01-25T12:11:55.512Z,128.70
2023-01-25T12:14:35.710Z,133.97
2023-01-25T12:17:17.789Z,131.47
2023-01-25T12:20:06.917Z,133.13
2023-01-25T12:22:55.224Z,127.60
2023-01-25T12:25:33.740Z,127.40
2023-01-25T12:28:12.266Z,124.93
2023-01-25T12:30:47.821Z,131.97
2023-01-25T12:33:22.069Z,135.13
2023-01-25T12:35:56.098Z,133.37
2023-01-25T12:38:29.139Z,132.20
2023-01-25T12:41:03.653Z,137.33
2023-01-25T12:43:36.714Z,124.87
2023-01-25T12:46:14.530Z,131.90
2023-01-25T12:48:48.331Z,130.80
2023-01-25T12:51:17.530Z,135.50
2023-01-25T12:53:48.469Z,129.97
2023-01-25T12:56:32.772Z,134.60
2023-01-25T12:59:08.191Z,135.33
2023-01-25T13:01:44.248Z,128.13
2023-01-25T13:04:24.431Z,134.27
2023-01-25T13:06:58.223Z,133.13
2023-01-25T13:09:34.511Z,131.37
2023-01-25T13:12:05.949Z,131.90
2023-01-25T13:14:38.848Z,129.70
2023-01-25T13:17:22.279Z,123.80
2023-01-25T13:19:51.545Z,130.83
2023-01-25T13:22:55.264Z,130.03
2023-01-25T13:25:24.662Z,128.87
2023-01-25T13:27:56.500Z,134.73
2023-01-25T13:30:30.375Z,131.07
2023-01-25T13:33:02.821Z,133.43
2023-01-25T13:35:36.294Z,137.07
2023-01-25T13:38:26.413Z,134.00
2023-01-25T13:41:17.349Z,120.97
2023-01-25T13:43:50.075Z,128.77
2023-01-25T13:46:23.827Z,130.20
2023-01-25T13:49:03.012Z,133.03
2023-01-25T13:51:36.482Z,126.70
2023-01-25T13:54:05.170Z,132.37
2023-01-25T13:56:35.408Z,123.70
2023-01-25T13:59:05.038Z,126.77
2023-01-25T14:01:35.209Z,131.63
2023-01-25T14:04:05.693Z,127.80
2023-01-25T14:06:36.189Z,141.30
2023-01-25T14:09:09.043Z,133.18
2023-01-25T14:11:44.060Z,126.93
2023-01-25T14:14:25.711Z,128.97
2023-01-25T14:19:41.223Z,125.17
2023-01-25T14:22:14.426Z,126.80
2023-01-25T14:24:42.702Z,134.17
2023-01-25T14:27:15.878Z,127.97
2023-01-25T14:29:49.776Z,131.23
2023-01-25T14:32:21.854Z,131.30
2023-01-25T14:34:50.430Z,127.43
2023-01-25T14:37:21.715Z,132.70
2023-01-25T14:39:52.055Z,127.30
2023-01-25T14:42:21.132Z,126.43
2023-01-25T14:44:51.173Z,132.60
2023-01-25T14:47:27.528Z,132.40
2023-01-25T14:49:55.926Z,128.10
2023-01-25T14:52:27.063Z,127.90
2023-01-25T14:54:58.632Z,138.57
2023-01-25T14:57:35.948Z,126.30
2023-01-25T15:00:09.626Z,135.37
2023-01-25T15:02:41.940Z,124.70
2023-01-25T15:05:21.389Z,135.57
2023-01-25T15:07:51.278Z,135.73
2023-01-25T15:10:22.942Z,137.43
2023-01-25T15:13:12.722Z,138.63
2023-01-25T15:15:54.121Z,128.23
2023-01-25T15:18:51.113Z,135.47
2023-01-25T15:21:21.369Z,134.00
2023-01-25T15:23:50.689Z,146.33
2023-01-25T15:26:24.211Z,140.23
2023-01-25T15:28:54.061Z,139.60
2023-01-25T15:31:26.191Z,127.77
2023-01-25T15:33:55.437Z,131.57
2023-01-25T15:36:23.880Z,130.17
2023-01-25T15:38:52.309Z,128.97
2023-01-25T15:41:20.861Z,139.63
2023-01-25T15:43:49.813Z,133.20
2023-01-25T15:46:20.995Z,137.90
2023-01-25T15:48:51.686Z,134.57
2023-01-25T15:51:20.582Z,134.07
2023-01-25T15:53:49.360Z,131.93
2023-01-25T15:56:19.933Z,130.47
2023-01-25T15:58:52.584Z,133.23
2023-01-25T16:01:21.746Z,130.60
2023-01-25T16:03:51.557Z,132.97
2023-01-25T16:06:34.639Z,133.53
2023-01-25T16:09:05.064Z,132.77
2023-01-25T16:11:33.646Z,134.10
2023-01-25T16:14:02.871Z,139.97
2023-01-25T16:16:31.282Z,142.37
2023-01-25T16:19:01.433Z,138.50
2023-01-25T16:21:29.882Z,127.97
2023-01-25T16:23:58.404Z,137.00
2023-01-25T16:26:28.992Z,143.00
2023-01-25T16:28:57.474Z,142.40
2023-01-25T16:31:32.828Z,135.00
2023-01-25T16:34:03.123Z,133.07
2023-01-25T16:36:31.828Z,145.63
2023-01-25T16:39:09.763Z,144.37
2023-01-25T16:41:38.725Z,139.13
2023-01-25T16:44:07.083Z,135.37
2023-01-25T16:46:35.312Z,144.67
2023-01-25T16:49:07.042Z,135.53
2023-01-25T16:51:35.736Z,138.47
2023-01-25T16:54:04.703Z,148.43
2023-01-25T16:56:34.351Z,144.97
2023-01-25T16:59:04.551Z,141.03
2023-01-25T17:01:33.598Z,150.07
2023-01-25T17:04:02.941Z,136.43
2023-01-25T17:06:34.019Z,139.83
2023-01-25T17:09:12.665Z,131.93
2023-01-25T17:11:49.271Z,141.67
2023-01-25T17:14:19.880Z,147.87
2023-01-25T17:16:51.452Z,138.90
2023-01-25T17:19:20.363Z,139.37
2023-01-25T17:21:50.306Z,138.23
2023-01-25T17:24:21.502Z,147.70
2023-01-25T17:26:50.901Z,151.40
2023-01-25T17:29:19.516Z,145.00
2023-01-25T17:31:47.798Z,144.43
2023-01-25T17:34:19.264Z,149.23
2023-01-25T17:36:49.509Z,148.40
2023-01-25T17:39:19.457Z,146.67
2023-01-25T17:41:49.249Z,150.07
2023-01-25T17:44:21.240Z,154.47
2023-01-25T17:46:50.160Z,153.30
2023-01-25T17:49:19.184Z,159.40
2023-01-25T17:51:47.569Z,155.53
2023-01-25T17:54:17.232Z,156.90
2023-01-25T17:56:45.748Z,159.37
2023-01-25T17:59:14.207Z,160.07
2023-01-25T18:01:43.743Z,161.30
2023-01-25T18:04:13.323Z,155.27
2023-01-25T18:06:41.890Z,169.80
2023-01-25T18:09:10.561Z,162.20
2023-01-25T18:11:41.188Z,156.83
2023-01-25T18:14:12.811Z,163.80
2023-01-25T18:16:42.253Z,155.30
2023-01-25T18:19:10.875Z,154.07
2023-01-25T18:21:42.236Z,157.10
2023-01-25T18:24:25.296Z,151.20
2023-01-25T18:26:59.767Z,164.50
2023-01-25T18:29:53.580Z,154.60
2023-01-25T18:32:22.278Z,159.27
2023-01-25T18:34:50.689Z,159.80
2023-01-25T18:37:20.677Z,152.33
2023-01-25T18:39:51.226Z,163.77
2023-01-25T18:42:22.113Z,154.37
2023-01-25T18:44:50.559Z,159.50
2023-01-25T18:47:20.015Z,161.18
2023-01-25T18:49:49.269Z,162.90
2023-01-25T18:52:18.397Z,157.67
2023-01-25T18:54:47.185Z,155.30
2023-01-25T18:57:15.732Z,161.13
2023-01-25T18:59:45.911Z,160.23
2023-01-25T19:02:16.300Z,155.87
2023-01-25T19:04:45.496Z,156.93
2023-01-25T19:07:14.034Z,165.47
2023-01-25T19:09:43.716Z,169.57
2023-01-25T19:12:12.032Z,175.40
2023-01-25T19:14:41.966Z,177.63
2023-01-25T19:17:11.615Z,175.53
2023-01-25T19:19:40.053Z,178.87
2023-01-25T19:22:08.343Z,203.77
2023-01-25T19:24:36.741Z,193.43
2023-01-25T19:27:05.169Z,189.93
2023-01-25T19:29:33.595Z,199.47
2023-01-25T19:32:01.980Z,204.30
2023-01-25T19:34:32.003Z,203.30
2023-01-25T19:37:00.466Z,232.00
2023-01-25T19:39:29.089Z,213.27
2023-01-25T19:41:57.449Z,213.97
2023-01-25T19:44:26.088Z,212.07
2023-01-25T19:46:54.602Z,228.87
2023-01-25T19:49:23.376Z,215.90
2023-01-25T19:51:54.149Z,213.97
2023-01-25T19:54:24.141Z,214.93
2023-01-25T19:56:52.705Z,220.40
2023-01-25T19:59:23.376Z,214.27
2023-01-25T20:01:52.139Z,212.40
2023-01-25T20:04:22.220Z,206.20
2023-01-25T20:06:52.388Z,212.93
2023-01-25T20:09:24.911Z,220.17
2023-01-25T20:11:55.365Z,216.20
2023-01-25T20:14:24.592Z,232.47
2023-01-25T20:16:53.109Z,218.90
2023-01-25T20:19:21.598Z,214.80
2023-01-25T20:21:50.127Z,212.83
2023-01-25T20:24:20.074Z,219.70
2023-01-25T20:26:49.029Z,215.60
2023-01-25T20:29:17.433Z,216.27
2023-01-25T20:31:46.879Z,209.17
2023-01-25T20:34:16.729Z,211.57
2023-01-25T20:36:45.387Z,222.23
2023-01-25T20:39:15.477Z,230.53
2023-01-25T20:41:45.526Z,222.10
2023-01-25T20:44:17.079Z,230.43
2023-01-25T20:46:45.661Z,219.03
2023-01-25T20:49:16.890Z,220.43
2023-01-25T20:51:45.871Z,227.80
2023-01-25T20:54:15.322Z,238.83
2023-01-25T20:56:47.825Z,239.17
2023-01-25T20:59:17.754Z,232.83
2023-01-25T21:01:46.891Z,246.67
2023-01-25T21:04:15.297Z,245.67
2023-01-25T21:06:43.725Z,252.20
2023-01-25T21:09:12.953Z,256.97
2023-01-25T21:11:41.923Z,266.57
2023-01-25T21:14:11.566Z,269.33
2023-01-25T21:16:40.068Z,264.70
2023-01-25T21:19:08.673Z,259.90
2023-01-25T21:21:38.528Z,288.57
2023-01-25T21:24:07.648Z,269.67
2023-01-25T21:26:38.259Z,281.37
2023-01-25T21:29:07.614Z,285.20
2023-01-25T21:31:39.311Z,302.37
2023-01-25T21:34:09.231Z,322.53
2023-01-25T21:36:37.941Z,332.03
2023-01-25T21:39:06.387Z,315.07
2023-01-25T21:41:34.972Z,317.63
2023-01-25T21:44:21.442Z,312.70
2023-01-25T21:49:56.740Z,312.53
2023-01-25T21:52:25.140Z,304.47
2023-01-25T21:54:53.541Z,304.87
2023-01-25T21:57:21.964Z,315.10
2023-01-25T21:59:52.503Z,312.77
2023-01-25T22:02:23.556Z,324.70
2023-01-25T22:04:51.939Z,310.37
2023-01-25T22:07:20.392Z,306.17
2023-01-25T22:09:49.535Z,317.50
2023-01-25T22:12:17.921Z,299.27
2023-01-25T22:14:46.589Z,304.20
2023-01-25T22:17:15.009Z,302.10
2023-01-25T22:19:44.622Z,300.03
2023-01-25T22:22:13.204Z,287.93
2023-01-25T22:24:41.515Z,320.30
2023-01-25T22:27:32.419Z,298.33
2023-01-25T22:30:00.713Z,301.97
2023-01-25T22:32:29.101Z,287.17
2023-01-25T22:34:58.625Z,283.97
2023-01-25T22:37:27.081Z,314.53
2023-01-25T22:39:58.356Z,301.63
2023-01-25T22:42:26.875Z,298.03
2023-01-25T22:44:55.229Z,298.27
2023-01-25T22:47:23.706Z,284.73
2023-01-25T22:49:51.994Z,275.70
2023-01-25T22:52:21.498Z,253.77
2023-01-25T22:54:50.999Z,285.10
2023-01-25T22:57:19.553Z,267.60
2023-01-25T22:59:47.989Z,291.13
2023-01-25T23:02:16.441Z,281.20
2023-01-25T23:04:44.805Z,268.97
2023-01-25T23:07:18.641Z,269.27
2023-01-25T23:09:51.405Z,307.50
2023-01-25T23:12:20.385Z,275.37
2023-01-25T23:14:51.563Z,316.60
2023-01-25T23:17:38.005Z,298.00
2023-01-25T23:20:07.386Z,278.47
2023-01-25T23:22:35.789Z,280.07
2023-01-25T23:25:06.733Z,285.90
2023-01-25T23:27:35.094Z,273.93
2023-01-25T23:30:05.279Z,284.33
2023-01-25T23:32:33.687Z,277.40
2023-01-25T23:35:02.417Z,289.40
2023-01-25T23:37:30.821Z,291.23
2023-01-25T23:39:59.209Z,265.20
2023-01-25T23:42:28.898Z,278.93
2023-01-25T23:44:57.270Z,282.77
2023-01-25T23:47:25.680Z,290.53
2023-01-25T23:49:54.115Z,297.80
2023-01-25T23:52:22.520Z,289.80
2023-01-25T23:54:50.860Z,288.63
2023-01-25T23:57:19.717Z,261.20
2023-01-25T23:59:49.300Z,276.80
